createdAt,value
2022-09-28T00:01:08.126Z,85238.16
2022-09-28T00:03:36.217Z,85240.13
2022-09-28T00:06:08.744Z,85206.69
2022-09-28T00:08:36.453Z,85193.94
2022-09-28T00:11:06.672Z,85226.56
2022-09-28T00:13:34.359Z,85221.88
2022-09-28T00:16:06.626Z,85224.31
2022-09-28T00:18:36.190Z,85167.97
2022-09-28T00:21:18.278Z,85205.16
2022-09-28T00:24:04.794Z,85227.09
2022-09-28T00:26:33.830Z,85222.28
2022-09-28T00:29:02.382Z,85223.78
2022-09-28T00:31:32.775Z,85233.66
2022-09-28T00:34:02.030Z,85219.81
2022-09-28T00:36:31.052Z,85222.97
2022-09-28T00:38:59.123Z,85214.16
2022-09-28T00:41:28.204Z,85213.16
2022-09-28T00:44:27.175Z,85214.69
2022-09-28T00:46:55.977Z,85219.88
2022-09-28T00:49:40.623Z,85214.16
2022-09-28T00:52:13.205Z,85191.81
2022-09-28T00:54:43.554Z,85210.66
2022-09-28T00:57:11.320Z,85216.75
2022-09-28T00:59:38.421Z,85201.06
2022-09-28T01:02:06.091Z,85179.25
2022-09-28T01:04:33.360Z,85206.06
2022-09-28T01:07:00.501Z,85183.72
2022-09-28T01:09:28.002Z,85214.72
2022-09-28T01:11:55.515Z,85218.59
2022-09-28T01:14:25.857Z,85178.91
2022-09-28T01:17:15.014Z,85172.69
2022-09-28T01:19:59.084Z,85215.13
2022-09-28T01:22:35.147Z,85212.28
2022-09-28T01:25:13.211Z,85217.31
2022-09-28T01:27:44.923Z,85178.25
2022-09-28T01:30:37.691Z,85207.06
2022-09-28T01:33:04.521Z,85210.19
2022-09-28T01:35:45.943Z,85211.75
2022-09-28T01:38:19.039Z,85181.72
2022-09-28T01:40:47.934Z,85186.50
2022-09-28T01:43:25.305Z,85180.41
2022-09-28T01:46:00.390Z,85196.47
2022-09-28T01:48:35.660Z,85181.63
2022-09-28T01:51:11.241Z,85193.03
2022-09-28T01:53:46.256Z,85195.53
2022-09-28T01:56:21.548Z,85208.00
2022-09-28T01:58:57.911Z,85203.75
2022-09-28T02:01:35.546Z,85197.09
2022-09-28T02:04:15.482Z,85199.13
2022-09-28T02:06:53.523Z,85192.50
2022-09-28T02:09:34.011Z,85199.94
2022-09-28T02:12:08.945Z,85172.53
2022-09-28T02:14:40.885Z,85189.09
2022-09-28T02:17:09.872Z,85203.47
2022-09-28T02:19:37.344Z,85200.06
2022-09-28T02:22:29.338Z,85200.75
2022-09-28T02:24:59.353Z,85208.34
2022-09-28T02:27:41.169Z,85169.25
2022-09-28T02:30:08.950Z,85156.88
2022-09-28T02:32:40.473Z,85198.38
2022-09-28T02:35:12.357Z,85172.81
2022-09-28T02:37:40.345Z,85205.78
2022-09-28T02:40:18.315Z,85178.59
2022-09-28T02:43:18.051Z,85201.75
2022-09-28T02:45:57.107Z,85186.31
2022-09-28T02:48:55.834Z,85205.78
2022-09-28T02:51:47.689Z,85215.78
2022-09-28T02:54:31.607Z,85205.84
2022-09-28T02:57:04.724Z,85189.91
2022-09-28T02:59:44.701Z,85146.47
2022-09-28T03:02:32.183Z,85168.22
2022-09-28T03:05:23.202Z,85192.38
2022-09-28T03:07:59.686Z,85192.44
2022-09-28T03:10:39.023Z,85161.41
2022-09-28T03:13:06.482Z,85183.06
2022-09-28T03:15:36.277Z,85197.44
2022-09-28T03:18:04.154Z,85198.25
2022-09-28T03:20:33.613Z,85192.56
2022-09-28T03:25:49.268Z,85187.44
2022-09-28T03:28:16.171Z,85176.16
2022-09-28T03:30:43.618Z,85197.25
2022-09-28T03:33:11.012Z,85195.16
2022-09-28T03:35:38.648Z,85186.59
2022-09-28T03:38:05.719Z,85194.09
2022-09-28T03:40:34.845Z,85164.69
2022-09-28T03:43:01.874Z,85167.25
2022-09-28T03:45:29.045Z,85190.34
2022-09-28T03:47:56.053Z,85151.31
2022-09-28T03:50:22.981Z,85184.28
2022-09-28T03:52:49.864Z,85195.09
2022-09-28T03:55:17.003Z,85193.69
2022-09-28T03:57:43.964Z,85200.47
2022-09-28T04:00:11.446Z,85198.44
2022-09-28T04:02:41.026Z,85142.16
2022-09-28T04:05:09.423Z,85199.13
2022-09-28T04:07:37.816Z,85185.47
2022-09-28T04:10:05.179Z,85204.13
2022-09-28T04:12:32.542Z,85203.44
2022-09-28T04:14:59.591Z,85204.69
2022-09-28T04:17:26.632Z,85195.41
2022-09-28T04:19:53.843Z,85182.41
2022-09-28T04:22:46.813Z,85199.03
2022-09-28T04:25:13.746Z,85204.81
2022-09-28T04:27:59.639Z,85217.41
2022-09-28T04:30:26.867Z,85216.84
2022-09-28T04:32:53.847Z,85182.09
2022-09-28T04:35:20.989Z,85195.09
2022-09-28T04:37:48.041Z,85227.53
2022-09-28T04:40:15.857Z,85217.28
2022-09-28T04:42:43.268Z,85220.53
2022-09-28T04:45:10.680Z,85233.09
2022-09-28T04:47:42.289Z,85216.66
2022-09-28T04:50:20.337Z,85238.25
2022-09-28T04:53:06.165Z,85194.06
2022-09-28T04:55:33.225Z,85227.28
2022-09-28T04:58:03.444Z,85203.75
2022-09-28T05:00:33.269Z,85234.63
2022-09-28T05:03:07.619Z,85220.63
2022-09-28T05:05:53.522Z,85242.03
2022-09-28T05:08:39.551Z,85235.38
2022-09-28T05:11:08.631Z,85246.16
2022-09-28T05:13:45.331Z,85241.84
2022-09-28T05:16:16.339Z,85243.13
2022-09-28T05:19:10.782Z,85245.31
2022-09-28T05:21:38.216Z,85217.75
2022-09-28T05:24:07.802Z,85238.53
2022-09-28T05:26:37.834Z,85225.97
2022-09-28T05:29:06.501Z,85238.59
2022-09-28T05:32:02.624Z,85246.47
2022-09-28T05:34:36.222Z,85240.16
2022-09-28T05:37:03.335Z,85238.53
2022-09-28T05:39:30.920Z,85202.66
2022-09-28T05:41:58.319Z,85253.81
2022-09-28T05:44:26.040Z,85233.31
2022-09-28T05:46:54.884Z,85250.28
2022-09-28T05:49:22.959Z,85259.59
2022-09-28T05:51:49.961Z,85226.53
2022-09-28T05:54:17.232Z,85255.28
2022-09-28T05:56:46.784Z,85248.97
2022-09-28T05:59:13.791Z,85231.69
2022-09-28T06:01:41.675Z,85236.69
2022-09-28T06:04:10.735Z,85240.47
2022-09-28T06:06:38.986Z,85238.72
2022-09-28T06:09:05.938Z,85249.13
2022-09-28T06:11:55.991Z,85274.41
2022-09-28T06:14:39.274Z,85278.81
2022-09-28T06:17:06.453Z,85284.59
2022-09-28T06:19:33.437Z,85273.31
2022-09-28T06:22:39.562Z,85282.28
2022-09-28T06:25:09.490Z,85291.22
2022-09-28T06:27:37.262Z,85291.06
2022-09-28T06:30:04.578Z,85288.41
2022-09-28T06:32:31.695Z,85259.81
2022-09-28T06:34:58.726Z,85240.41
2022-09-28T06:37:29.073Z,85276.84
2022-09-28T06:39:56.670Z,85290.50
2022-09-28T06:42:24.178Z,85291.91
2022-09-28T06:45:20.213Z,85273.97
2022-09-28T06:48:06.891Z,85279.13
2022-09-28T06:50:43.081Z,85285.97
2022-09-28T06:53:28.717Z,85282.44
2022-09-28T06:56:11.197Z,85286.41
2022-09-28T06:58:38.187Z,85248.34
2022-09-28T07:01:05.839Z,85284.69
2022-09-28T07:03:45.823Z,85285.06
2022-09-28T07:06:47.423Z,85270.69
2022-09-28T07:09:43.838Z,85295.94
2022-09-28T07:12:35.939Z,85289.53
2022-09-28T07:15:23.244Z,85297.97
2022-09-28T07:18:00.508Z,85295.41
2022-09-28T07:20:30.406Z,85307.84
2022-09-28T07:23:14.293Z,85301.28
2022-09-28T07:26:09.037Z,85294.28
2022-09-28T07:28:56.102Z,85309.81
2022-09-28T07:31:46.330Z,85307.69
2022-09-28T07:34:20.561Z,85294.13
2022-09-28T07:37:01.788Z,85282.59
2022-09-28T07:39:29.356Z,85291.94
2022-09-28T07:42:02.421Z,85300.53
2022-09-28T07:44:30.033Z,85316.03
2022-09-28T07:46:57.697Z,85312.84
2022-09-28T07:49:36.486Z,85326.13
2022-09-28T07:52:15.235Z,85286.41
2022-09-28T07:55:06.864Z,85327.16
2022-09-28T07:58:01.180Z,85324.78
2022-09-28T08:00:42.647Z,85322.25
2022-09-28T08:03:09.663Z,85327.50
2022-09-28T08:05:39.243Z,85296.22
2022-09-28T08:08:06.263Z,85316.38
2022-09-28T08:10:33.403Z,85287.50
2022-09-28T08:13:31.259Z,85313.47
2022-09-28T08:16:16.157Z,85326.50
2022-09-28T08:19:01.473Z,85306.63
2022-09-28T08:21:47.008Z,85306.19
2022-09-28T08:24:15.912Z,85332.47
2022-09-28T08:26:44.311Z,85318.31
2022-09-28T08:29:12.569Z,85287.91
2022-09-28T08:31:51.723Z,85307.56
2022-09-28T08:34:38.013Z,85329.41
2022-09-28T08:37:40.084Z,85331.53
2022-09-28T08:40:26.167Z,85330.41
2022-09-28T08:43:23.399Z,85337.97
2022-09-28T08:46:14.023Z,85323.66
2022-09-28T08:49:25.061Z,85295.19
2022-09-28T08:52:23.689Z,85320.56
2022-09-28T08:55:12.067Z,85320.97
2022-09-28T08:57:51.290Z,85303.28
2022-09-28T09:00:34.323Z,85320.53
2022-09-28T09:03:07.683Z,85299.91
2022-09-28T09:05:50.246Z,85317.09
2022-09-28T09:08:57.412Z,85334.13
2022-09-28T09:11:28.094Z,85338.13
2022-09-28T09:14:04.084Z,85334.22
2022-09-28T09:17:01.475Z,85335.34
2022-09-28T09:19:55.093Z,85325.59
2022-09-28T09:22:59.997Z,85324.16
2022-09-28T09:25:47.343Z,85343.59
2022-09-28T09:28:43.823Z,85322.69
2022-09-28T09:31:26.797Z,85339.28
2022-09-28T09:34:13.247Z,85346.25
2022-09-28T09:37:03.806Z,85351.75
2022-09-28T09:40:14.147Z,85357.97
2022-09-28T09:43:30.869Z,85349.50
2022-09-28T09:46:40.862Z,85327.84
2022-09-28T09:49:38.016Z,85352.00
2022-09-28T09:52:29.646Z,85352.06
2022-09-28T09:55:30.019Z,85352.72
2022-09-28T09:58:41.506Z,85352.28
2022-09-28T10:01:35.326Z,85346.69
2022-09-28T10:04:44.642Z,85354.91
2022-09-28T10:07:25.611Z,85333.69
2022-09-28T10:09:58.342Z,85354.91
2022-09-28T10:12:44.624Z,85348.00
2022-09-28T10:15:25.798Z,85322.97
2022-09-28T10:18:11.078Z,85358.16
2022-09-28T10:20:56.543Z,85358.16
2022-09-28T10:24:05.208Z,85327.06
2022-09-28T10:26:41.878Z,85329.81
2022-09-28T10:29:37.510Z,85341.56
2022-09-28T10:32:19.170Z,85336.03
2022-09-28T10:34:50.248Z,85336.47
2022-09-28T10:37:20.885Z,85327.56
2022-09-28T10:40:41.647Z,85347.53
2022-09-28T10:43:17.410Z,85341.06
2022-09-28T10:45:46.689Z,85303.13
2022-09-28T10:48:22.964Z,85318.19
2022-09-28T10:51:07.702Z,85320.59
2022-09-28T10:53:38.819Z,85341.88
2022-09-28T10:56:29.192Z,85342.44
2022-09-28T10:59:31.493Z,85338.00
2022-09-28T11:02:41.447Z,85329.69
2022-09-28T11:05:22.939Z,85339.63
2022-09-28T11:07:53.740Z,85330.47
2022-09-28T11:10:28.917Z,85332.41
2022-09-28T11:13:01.888Z,85324.19
2022-09-28T11:15:32.335Z,85335.00
2022-09-28T11:18:19.533Z,85335.69
2022-09-28T11:20:46.845Z,85326.72
2022-09-28T11:23:55.086Z,85332.09
2022-09-28T11:26:22.400Z,85319.75
2022-09-28T11:28:53.648Z,85337.63
2022-09-28T11:31:31.753Z,85314.69
2022-09-28T11:34:27.758Z,85326.41
2022-09-28T11:37:24.193Z,85314.50
2022-09-28T11:40:22.161Z,85317.72
2022-09-28T11:45:54.186Z,85301.91
2022-09-28T11:48:27.965Z,85267.94
2022-09-28T11:51:07.805Z,85316.59
2022-09-28T11:53:37.172Z,85306.31
2022-09-28T11:56:35.381Z,85305.56
2022-09-28T11:59:13.884Z,85307.75
2022-09-28T12:02:00.558Z,85305.81
2022-09-28T12:05:07.349Z,85279.72
2022-09-28T12:07:43.979Z,85287.81
2022-09-28T12:10:44.690Z,85321.09
2022-09-28T12:13:27.587Z,85308.28
2022-09-28T12:19:18.767Z,85311.78
2022-09-28T12:21:56.250Z,85301.88
2022-09-28T12:24:30.911Z,85310.13
2022-09-28T12:27:11.370Z,85309.13
2022-09-28T12:29:47.874Z,85315.41
2022-09-28T12:32:26.982Z,85311.59
2022-09-28T12:34:54.161Z,85311.69
2022-09-28T12:37:53.890Z,85314.19
2022-09-28T12:40:37.541Z,85307.91
2022-09-28T12:43:29.287Z,85312.72
2022-09-28T12:46:11.921Z,85313.06
2022-09-28T12:49:43.614Z,85307.66
2022-09-28T12:51:57.837Z,85308.09
2022-09-28T12:54:50.777Z,85313.03
2022-09-28T12:57:20.689Z,85316.56
2022-09-28T12:59:53.330Z,85314.00
2022-09-28T13:02:36.984Z,85314.88
2022-09-28T13:05:19.872Z,85296.63
2022-09-28T13:07:53.372Z,85314.66
2022-09-28T13:10:46.360Z,85324.66
2022-09-28T13:13:50.006Z,85322.53
2022-09-28T13:17:00.615Z,85323.91
2022-09-28T13:20:18.967Z,85332.22
2022-09-28T13:23:26.455Z,85324.53
2022-09-28T13:26:29.869Z,85313.31
2022-09-28T13:29:04.542Z,85298.69
2022-09-28T13:31:35.988Z,85316.00
2022-09-28T13:34:07.407Z,85276.22
2022-09-28T13:36:37.081Z,85321.88
2022-09-28T13:39:04.739Z,85319.84
2022-09-28T13:41:40.543Z,85308.72
2022-09-28T13:44:13.420Z,85316.03
2022-09-28T13:47:08.671Z,85293.19
2022-09-28T13:49:56.508Z,85292.25
2022-09-28T13:53:14.781Z,85318.69
2022-09-28T13:56:01.730Z,85319.38
2022-09-28T13:58:34.927Z,85319.00
2022-09-28T14:01:34.131Z,85288.03
2022-09-28T14:04:18.594Z,85318.75
2022-09-28T14:07:00.147Z,85319.28
2022-09-28T14:10:09.352Z,85291.59
2022-09-28T14:12:41.669Z,85316.50
2022-09-28T14:15:37.410Z,85318.81
2022-09-28T14:18:04.538Z,85321.34
2022-09-28T14:20:31.898Z,85321.72
2022-09-28T14:23:17.214Z,85317.78
2022-09-28T14:26:00.078Z,85332.91
2022-09-28T14:28:39.193Z,85324.00
2022-09-28T14:31:10.783Z,85325.09
2022-09-28T14:33:39.460Z,85311.78
2022-09-28T14:36:41.972Z,85322.59
2022-09-28T14:39:50.224Z,85324.19
2022-09-28T14:42:23.901Z,85292.09
2022-09-28T14:45:06.318Z,85331.25
2022-09-28T14:47:34.297Z,85327.75
2022-09-28T14:50:17.993Z,85316.56
2022-09-28T14:52:51.843Z,85316.56
2022-09-28T14:55:26.364Z,85308.34
2022-09-28T14:57:57.238Z,85313.06
2022-09-28T15:00:28.365Z,85282.09
2022-09-28T15:03:00.200Z,85313.47
2022-09-28T15:05:44.196Z,85310.00
2022-09-28T15:08:12.155Z,85318.47
2022-09-28T15:10:45.444Z,85327.28
2022-09-28T15:13:40.802Z,85315.69
2022-09-28T15:16:11.671Z,85319.66
2022-09-28T15:18:57.005Z,85344.16
2022-09-28T15:21:24.035Z,85342.13
2022-09-28T15:23:51.116Z,85343.03
2022-09-28T15:26:32.303Z,85342.72
2022-09-28T15:29:03.412Z,85341.66
2022-09-28T15:31:35.186Z,85331.88
2022-09-28T15:34:20.605Z,85349.38
2022-09-28T15:36:48.042Z,85358.84
2022-09-28T15:39:34.866Z,85364.75
2022-09-28T15:42:02.336Z,85313.47
2022-09-28T15:44:33.106Z,85365.28
2022-09-28T15:47:09.268Z,85364.31
2022-09-28T15:49:44.055Z,85370.91
2022-09-28T15:52:23.062Z,85370.00
2022-09-28T15:54:50.928Z,85360.44
2022-09-28T15:57:37.172Z,85366.38
2022-09-28T16:00:25.610Z,85332.03
2022-09-28T16:03:05.755Z,85348.78
2022-09-28T16:05:41.428Z,85347.78
2022-09-28T16:08:22.243Z,85358.13
2022-09-28T16:11:04.639Z,85359.69
2022-09-28T16:13:32.218Z,85357.16
2022-09-28T16:16:00.328Z,85313.91
2022-09-28T16:18:30.328Z,85345.31
2022-09-28T16:21:28.977Z,85356.84
2022-09-28T16:23:56.230Z,85330.09
2022-09-28T16:26:37.720Z,85355.75
2022-09-28T16:29:27.805Z,85351.50
2022-09-28T16:31:55.794Z,85353.22
2022-09-28T16:34:27.334Z,85346.00
2022-09-28T16:36:54.487Z,85332.94
2022-09-28T16:39:22.001Z,85327.03
2022-09-28T16:41:54.074Z,85348.03
2022-09-28T16:44:24.866Z,85337.03
2022-09-28T16:46:55.225Z,85339.22
2022-09-28T16:49:25.470Z,85326.66
2022-09-28T16:51:52.826Z,85367.69
2022-09-28T16:54:41.216Z,85365.47
2022-09-28T16:57:11.668Z,85347.84
2022-09-28T16:59:38.926Z,85349.19
2022-09-28T17:02:45.790Z,85350.47
2022-09-28T17:05:19.456Z,85345.47
2022-09-28T17:08:01.821Z,85370.53
2022-09-28T17:11:09.676Z,85346.31
2022-09-28T17:13:34.004Z,85341.72
2022-09-28T17:16:04.483Z,85340.44
2022-09-28T17:18:32.342Z,85352.56
2022-09-28T17:21:04.102Z,85342.88
2022-09-28T17:23:31.055Z,85365.25
2022-09-28T17:25:59.128Z,85391.19
2022-09-28T17:28:34.884Z,85388.47
2022-09-28T17:31:03.035Z,85368.28
2022-09-28T17:33:30.293Z,85370.34
2022-09-28T17:36:00.581Z,85372.38
2022-09-28T17:38:28.251Z,85391.34
2022-09-28T17:40:56.905Z,85379.31
2022-09-28T17:43:24.112Z,85379.13
2022-09-28T17:45:51.107Z,85391.50
2022-09-28T17:48:23.497Z,85364.22
2022-09-28T17:50:50.825Z,85379.47
2022-09-28T17:53:18.049Z,85403.78
2022-09-28T17:55:45.186Z,85391.44
2022-09-28T17:58:20.406Z,85404.22
2022-09-28T18:00:49.504Z,85398.13
2022-09-28T18:03:20.128Z,85382.88
2022-09-28T18:05:49.984Z,85393.03
2022-09-28T18:08:21.465Z,85392.13
2022-09-28T18:10:50.562Z,85400.78
2022-09-28T18:13:17.499Z,85383.34
2022-09-28T18:15:44.605Z,85412.97
2022-09-28T18:18:12.995Z,85387.56
2022-09-28T18:20:42.141Z,85390.75
2022-09-28T18:23:09.147Z,85409.94
2022-09-28T18:25:40.323Z,85380.88
2022-09-28T18:28:07.324Z,85403.94
2022-09-28T18:30:38.407Z,85427.75
2022-09-28T18:33:07.770Z,85385.25
2022-09-28T18:35:34.869Z,85401.22
2022-09-28T18:38:04.196Z,85387.41
2022-09-28T18:40:32.445Z,85442.97
2022-09-28T18:42:59.517Z,85433.38
2022-09-28T18:45:26.676Z,85423.66
2022-09-28T18:47:53.774Z,85397.69
2022-09-28T18:50:20.832Z,85447.75
2022-09-28T18:52:47.940Z,85410.84
2022-09-28T18:55:14.904Z,85420.56
2022-09-28T18:57:42.622Z,85440.47
2022-09-28T19:00:11.670Z,85448.63
2022-09-28T19:02:39.449Z,85431.66
2022-09-28T19:05:07.223Z,85447.13
2022-09-28T19:07:34.677Z,85447.63
2022-09-28T19:10:02.063Z,85445.59
2022-09-28T19:12:29.114Z,85417.94
2022-09-28T19:14:56.547Z,85451.03
2022-09-28T19:17:23.661Z,85434.72
2022-09-28T19:19:51.774Z,85426.59
2022-09-28T19:22:18.763Z,85415.50
2022-09-28T19:24:46.017Z,85453.75
2022-09-28T19:27:13.039Z,85457.91
2022-09-28T19:29:40.054Z,85452.44
2022-09-28T19:32:07.039Z,85433.97
2022-09-28T19:34:33.945Z,85429.81
2022-09-28T19:37:04.008Z,85421.31
2022-09-28T19:39:31.205Z,85451.72
2022-09-28T19:41:59.853Z,85458.56
2022-09-28T19:44:31.414Z,85454.34
2022-09-28T19:47:00.696Z,85453.06
2022-09-28T19:49:28.268Z,85464.16
2022-09-28T19:52:11.941Z,85458.81
2022-09-28T19:54:40.185Z,85429.78
2022-09-28T19:57:11.600Z,85446.66
2022-09-28T19:59:39.470Z,85425.81
2022-09-28T20:02:07.821Z,85462.78
2022-09-28T20:04:35.049Z,85439.72
2022-09-28T20:07:02.770Z,85432.47
2022-09-28T20:09:30.003Z,85433.47
2022-09-28T20:11:57.405Z,85458.72
2022-09-28T20:14:26.270Z,85454.66
2022-09-28T20:16:57.752Z,85446.72
2022-09-28T20:19:24.806Z,85416.22
2022-09-28T20:21:51.893Z,85437.16
2022-09-28T20:24:18.929Z,85412.53
2022-09-28T20:26:46.183Z,85440.09
2022-09-28T20:29:13.429Z,85414.34
2022-09-28T20:31:40.658Z,85416.66
2022-09-28T20:34:08.090Z,85445.16
2022-09-28T20:36:35.580Z,85440.16
2022-09-28T20:39:03.086Z,85419.69
2022-09-28T20:41:36.944Z,85412.97
2022-09-28T20:44:06.504Z,85412.69
2022-09-28T20:46:35.503Z,85420.00
2022-09-28T20:49:03.111Z,85392.13
2022-09-28T20:51:30.356Z,85382.25
2022-09-28T20:53:59.031Z,85442.28
2022-09-28T20:56:34.588Z,85427.72
2022-09-28T20:59:01.607Z,85442.31
2022-09-28T21:01:30.679Z,85385.78
2022-09-28T21:04:00.340Z,85414.56
2022-09-28T21:06:32.378Z,85448.66
2022-09-28T21:08:59.880Z,85440.53
2022-09-28T21:11:28.752Z,85427.66
2022-09-28T21:13:59.109Z,85405.34
2022-09-28T21:16:29.154Z,85437.63
2022-09-28T21:18:56.477Z,85424.69
2022-09-28T21:21:24.475Z,85423.13
2022-09-28T21:23:55.109Z,85414.44
2022-09-28T21:26:27.286Z,85427.91
2022-09-28T21:28:58.082Z,85424.34
2022-09-28T21:31:29.201Z,85434.16
2022-09-28T21:33:59.591Z,85444.34
2022-09-28T21:36:26.595Z,85396.28
2022-09-28T21:38:56.248Z,85399.41
2022-09-28T21:41:27.132Z,85415.66
2022-09-28T21:43:54.060Z,85446.31
2022-09-28T21:46:21.679Z,85430.53
2022-09-28T21:48:54.715Z,85394.69
2022-09-28T21:51:21.936Z,85421.41
2022-09-28T21:53:49.562Z,85423.09
2022-09-28T21:56:16.603Z,85437.53
2022-09-28T21:58:43.538Z,85445.50
2022-09-28T22:01:15.691Z,85436.50
2022-09-28T22:03:44.778Z,85437.25
2022-09-28T22:06:11.935Z,85423.56
2022-09-28T22:08:39.429Z,85430.19
2022-09-28T22:11:13.513Z,85429.44
2022-09-28T22:13:52.861Z,85423.25
2022-09-28T22:16:22.803Z,85406.97
2022-09-28T22:18:50.530Z,85429.31
2022-09-28T22:21:20.393Z,85402.75
2022-09-28T22:23:48.505Z,85430.69
2022-09-28T22:26:23.703Z,85391.38
2022-09-28T22:28:59.056Z,85430.38
2022-09-28T22:31:29.165Z,85409.16
2022-09-28T22:33:56.724Z,85413.06
2022-09-28T22:36:24.054Z,85431.00
2022-09-28T22:38:50.984Z,85431.94
2022-09-28T22:41:22.862Z,85406.50
2022-09-28T22:43:51.411Z,85424.84
2022-09-28T22:46:23.813Z,85393.28
2022-09-28T22:48:56.380Z,85435.38
2022-09-28T22:51:25.174Z,85404.81
2022-09-28T22:53:52.213Z,85431.28
2022-09-28T22:56:19.488Z,85411.00
2022-09-28T22:58:46.941Z,85420.72
2022-09-28T23:01:19.891Z,85422.28
2022-09-28T23:03:47.833Z,85426.28
2022-09-28T23:06:16.870Z,85440.28
2022-09-28T23:08:45.417Z,85408.56
2022-09-28T23:11:12.369Z,85433.63
2022-09-28T23:13:39.633Z,85420.09
2022-09-28T23:16:12.905Z,85450.63
2022-09-28T23:18:41.166Z,85449.56
2022-09-28T23:21:17.768Z,85427.72
2022-09-28T23:23:46.118Z,85441.91
2022-09-28T23:26:16.132Z,85439.66
2022-09-28T23:28:43.239Z,85443.81
2022-09-28T23:31:19.100Z,85438.28
2022-09-28T23:33:46.806Z,85443.97
2022-09-28T23:36:14.163Z,85430.03
2022-09-28T23:38:41.628Z,85425.94
2022-09-28T23:41:09.298Z,85419.06
2022-09-28T23:43:36.485Z,85400.94
2022-09-28T23:46:05.229Z,85423.34
2022-09-28T23:48:32.439Z,85407.75
2022-09-28T23:50:59.823Z,85414.41
2022-09-28T23:53:27.566Z,85381.72
2022-09-28T23:55:54.999Z,85398.03
2022-09-28T23:58:22.749Z,85406.53
